• Join FlightAware (Why Join?)
  • Login
  • US Flag 
04:31AM EDT


 

Airport Tracker/Info


-or-


 

Live Flight TrackerFlight Track Log ✈ UAL1401 ✈ 11-May-2013 ✈ TNCB / BON - KIAH

Flight Track Log - Related Links

Times and Time Zones

All times are in EDT time to prevent confusion due to time zone crossing. See the UAL1401 flight status page for this flight to view local times or setup timezone preferences in your user account.

Time Position Orientation Groundspeed Altitude Reporting Facility
EDT Latitude Longitude Course Direction KTS MPH feet Rate Location/Type
07:40AM 12.3682 -68.6357 303° West  Level FlightAware Approximate
07:41AM 12.4274 -68.7305 303° West  Level FlightAware Approximate
07:42AM 12.4876 -68.8248 304° West  Level FlightAware Approximate
07:43AM 12.5484 -68.9186 304° West  Level FlightAware Approximate
07:44AM 12.6093 -69.0129 304° West  Level FlightAware Approximate
07:45AM 12.6723 -69.1057 306° West  Level FlightAware Approximate
07:46AM 12.7366 -69.1976 306° West  Level FlightAware Approximate
07:47AM 12.8010 -69.2895 306° West  Level FlightAware Approximate
07:48AM 12.8653 -69.3814 306° West  Level FlightAware Approximate
07:49AM 12.9198 -69.4796 304° West  Level FlightAware Approximate
07:50AM 12.9791 -69.5749 297° West  Level FlightAware Approximate
07:51AM 13.0419 -69.6679 305° West  Level FlightAware Approximate
07:52AM 13.1058 -69.7602 305° West  Level FlightAware Approximate
07:53AM 13.1682 -69.8536 304° West  Level FlightAware Approximate
07:54AM 13.2295 -69.9479 304° West  Level FlightAware Approximate
07:55AM 13.2908 -70.0422 304° West  Level FlightAware Approximate
07:56AM 13.3520 -70.1365 304° West  Level FlightAware Approximate
07:57AM 13.4132 -70.2309 304° West  Level FlightAware Approximate
07:58AM 13.4743 -70.3253 304° West  Level FlightAware Approximate
07:59AM 13.5354 -70.4198 304° West  Level FlightAware Approximate
08:00AM 13.5965 -70.5143 304° West  Level FlightAware Approximate
08:01AM 13.6575 -70.6089 304° West  Level FlightAware Approximate
08:02AM 13.7185 -70.7035 304° West  Level FlightAware Approximate
08:03AM 13.7795 -70.7982 304° West  Level FlightAware Approximate
08:04AM 13.8404 -70.8929 304° West  Level FlightAware Approximate
08:05AM 13.9013 -70.9877 304° West  Level FlightAware Approximate
08:06AM 13.9622 -71.0825 303° West  Level FlightAware Approximate
08:07AM 14.0230 -71.1774 303° West  Level FlightAware Approximate
08:08AM 14.0838 -71.2723 303° West  Level FlightAware Approximate
08:09AM 14.1445 -71.3672 303° West  Level FlightAware Approximate
08:10AM 14.2050 -71.4619 303° West  Level FlightAware Approximate
08:11AM 14.2655 -71.5567 303° West  Level FlightAware Approximate
08:12AM 14.3259 -71.6515 303° West  Level FlightAware Approximate
08:13AM 14.3863 -71.7463 303° West  Level FlightAware Approximate
08:14AM 14.4466 -71.8412 303° West  Level FlightAware Approximate
08:15AM 14.5070 -71.9361 303° West  Level FlightAware Approximate
08:16AM 14.5672 -72.0312 303° West  Level FlightAware Approximate
08:17AM 14.6275 -72.1262 303° West  Level FlightAware Approximate
08:18AM 14.6876 -72.2213 303° West  Level FlightAware Approximate
08:19AM 14.7478 -72.3165 303° West  Level FlightAware Approximate
08:20AM 14.8079 -72.4117 303° West  Level FlightAware Approximate
08:21AM 14.8680 -72.5069 303° West  Level FlightAware Approximate
08:22AM 14.9281 -72.6022 303° West  Level FlightAware Approximate
08:23AM 14.9881 -72.6976 303° West  Level FlightAware Approximate
08:24AM 15.0480 -72.7930 303° West  Level FlightAware Approximate
08:25AM 15.1079 -72.8885 303° West  Level FlightAware Approximate
08:26AM 15.1678 -72.9840 303° West  Level FlightAware Approximate
08:27AM 15.2276 -73.0796 303° West  Level FlightAware Approximate
08:28AM 15.2874 -73.1752 303° West  Level FlightAware Approximate
08:29AM 15.3472 -73.2709 303° West  Level FlightAware Approximate
08:30AM 15.4069 -73.3667 303° West  Level FlightAware Approximate
08:31AM 15.4666 -73.4625 303° West  Level FlightAware Approximate
08:32AM 15.5262 -73.5583 303° West  Level FlightAware Approximate
08:33AM 15.5858 -73.6543 303° West  Level FlightAware Approximate
08:34AM 15.6454 -73.7502 303° West  Level FlightAware Approximate
08:35AM 15.7049 -73.8463 303° West  Level FlightAware Approximate
08:36AM 15.7643 -73.9423 303° West  Level FlightAware Approximate
08:37AM 15.8239 -74.0384 303° West  Level FlightAware Approximate
08:38AM 15.8835 -74.1345 303° West  Level FlightAware Approximate
08:39AM 15.9431 -74.2305 303° West  Level FlightAware Approximate
08:40AM 16.0026 -74.3267 303° West  Level FlightAware Approximate
08:41AM 16.0621 -74.4229 303° West  Level FlightAware Approximate
08:42AM 16.1216 -74.5191 303° West  Level FlightAware Approximate
08:43AM 16.1810 -74.6155 303° West  Level FlightAware Approximate
08:44AM 16.2404 -74.7118 303° West  Level FlightAware Approximate
08:45AM 16.2997 -74.8083 303° West  Level FlightAware Approximate
08:46AM 16.3589 -74.9048 303° West  Level FlightAware Approximate
08:47AM 16.4182 -75.0013 303° West  Level FlightAware Approximate
08:48AM 16.4774 -75.0979 303° West  Level FlightAware Approximate
08:49AM 16.5365 -75.1946 303° West  Level FlightAware Approximate
08:50AM 16.5956 -75.2913 303° West  Level FlightAware Approximate
08:51AM 16.6547 -75.3881 303° West  Level FlightAware Approximate
08:52AM 16.7137 -75.4850 302° West  Level FlightAware Approximate
08:53AM 16.7727 -75.5819 302° West  Level FlightAware Approximate
08:54AM 16.8316 -75.6788 302° West  Level FlightAware Approximate
08:55AM 16.8905 -75.7759 302° West  Level FlightAware Approximate
08:56AM 16.9493 -75.8730 302° West  Level FlightAware Approximate
08:57AM 17.0081 -75.9701 302° West  Level FlightAware Approximate
08:58AM 17.0668 -76.0673 302° West  Level FlightAware Approximate
08:59AM 17.1255 -76.1646 302° West  Level FlightAware Approximate
09:00AM 17.1842 -76.2619 302° West  Level FlightAware Approximate
09:01AM 17.2428 -76.3593 302° West  Level FlightAware Approximate
09:02AM 17.3013 -76.4568 302° West  Level FlightAware Approximate
09:03AM 17.3598 -76.5543 302° West  Level FlightAware Approximate
09:04AM 17.4183 -76.6519 302° West  Level FlightAware Approximate
09:05AM 17.4767 -76.7495 302° West  Level FlightAware Approximate
09:06AM 17.5351 -76.8472 302° West  Level FlightAware Approximate
09:07AM 17.5934 -76.9450 302° West  Level FlightAware Approximate
09:08AM 17.6516 -77.0428 302° West  Level FlightAware Approximate
09:09AM 17.7099 -77.1407 302° West  Level FlightAware Approximate
09:10AM 17.7680 -77.2387 302° West  Level FlightAware Approximate
09:11AM 17.8262 -77.3367 302° West  Level FlightAware Approximate
09:12AM 17.8842 -77.4348 302° West  Level FlightAware Approximate
09:13AM 17.9422 -77.5329 302° West  Level FlightAware Approximate
09:14AM 18.0002 -77.6311 302° West  Level FlightAware Approximate
09:15AM 18.0582 -77.7294 302° West  Level FlightAware Approximate
09:16AM 18.1160 -77.8278 302° West  Level FlightAware Approximate
09:17AM 18.1739 -77.9262 302° West  Level FlightAware Approximate
09:18AM 18.2316 -78.0246 302° West  Level FlightAware Approximate
09:19AM 18.2894 -78.1232 302° West  Level FlightAware Approximate
09:20AM 18.3470 -78.2218 302° West  Level FlightAware Approximate
09:21AM 18.4047 -78.3204 302° West  Level FlightAware Approximate
09:22AM 18.4622 -78.4192 302° West  Level FlightAware Approximate
09:23AM 18.5198 -78.5180 302° West  Level FlightAware Approximate
09:24AM 18.5772 -78.6169 302° West  Level FlightAware Approximate
09:25AM 18.6346 -78.7158 301° West  Level FlightAware Approximate
09:26AM 18.6920 -78.8148 301° West  Level FlightAware Approximate
09:27AM 18.7493 -78.9139 301° West  Level FlightAware Approximate
09:28AM 18.8066 -79.0130 301° West  Level FlightAware Approximate
09:29AM 18.8638 -79.1122 301° West  Level FlightAware Approximate
09:30AM 18.9210 -79.2115 301° West  Level FlightAware Approximate
09:31AM 18.9781 -79.3108 301° West  Level FlightAware Approximate
09:32AM 19.0351 -79.4102 301° West  Level FlightAware Approximate
09:33AM 19.0921 -79.5097 301° West  Level FlightAware Approximate
09:34AM 19.1491 -79.6092 301° West  Level FlightAware Approximate
09:35AM 19.2060 -79.7088 301° West  Level FlightAware Approximate
09:36AM 19.2628 -79.8085 301° West  Level FlightAware Approximate
09:37AM 19.3196 -79.9083 301° West  Level FlightAware Approximate
09:38AM 19.3759 -80.0074 301° West  Level FlightAware Approximate
09:39AM 19.4322 -80.1066 301° West  Level FlightAware Approximate
09:40AM 19.4884 -80.2059 301° West  Level FlightAware Approximate
09:41AM 19.5446 -80.3052 301° West  Level FlightAware Approximate
09:42AM 19.6007 -80.4046 301° West  Level FlightAware Approximate
09:43AM 19.6568 -80.5041 301° West  Level FlightAware Approximate
09:44AM 19.7128 -80.6036 301° West  Level FlightAware Approximate
09:45AM 19.7688 -80.7032 301° West  Level FlightAware Approximate
09:46AM 19.8247 -80.8029 301° West  Level FlightAware Approximate
09:47AM 19.8805 -80.9026 301° West  Level FlightAware Approximate
09:48AM 19.9363 -81.0025 301° West  Level FlightAware Approximate
09:49AM 19.9920 -81.1024 301° West  Level FlightAware Approximate
09:50AM 20.0476 -81.2024 301° West  Level FlightAware Approximate
09:51AM 20.1032 -81.3025 301° West  Level FlightAware Approximate
09:52AM 20.1586 -81.4026 301° West  Level FlightAware Approximate
09:53AM 20.2141 -81.5029 301° West  Level FlightAware Approximate
09:54AM 20.2694 -81.6032 300° West  Level FlightAware Approximate
09:55AM 20.3247 -81.7035 300° West  Level FlightAware Approximate
09:56AM 20.3800 -81.8040 300° West  Level FlightAware Approximate
09:57AM 20.4352 -81.9045 300° West  Level FlightAware Approximate
09:58AM 20.4903 -82.0051 300° West  Level FlightAware Approximate
09:59AM 20.5453 -82.1058 300° West  Level FlightAware Approximate
10:00AM 20.6004 -82.2065 300° West  Level FlightAware Approximate
10:01AM 20.6553 -82.3073 300° West  Level FlightAware Approximate
10:02AM 20.7102 -82.4082 300° West  Level FlightAware Approximate
10:03AM 20.7651 -82.5091 300° West  Level FlightAware Approximate
10:04AM 20.8199 -82.6102 300° West  Level FlightAware Approximate
10:05AM 20.8746 -82.7113 300° West  Level FlightAware Approximate
10:06AM 20.9292 -82.8125 300° West  Level FlightAware Approximate
10:07AM 20.9838 -82.9137 300° West  Level FlightAware Approximate
10:08AM 21.0384 -83.0150 300° West  Level FlightAware Approximate
10:09AM 21.0928 -83.1164 300° West  Level FlightAware Approximate
10:10AM 21.1473 -83.2179 300° West  Level FlightAware Approximate
10:11AM 21.2016 -83.3195 300° West  Level FlightAware Approximate
10:12AM 21.2559 -83.4211 300° West  Level FlightAware Approximate
10:13AM 21.3102 -83.5228 300° West  Level FlightAware Approximate
10:14AM 21.3643 -83.6245 300° West  Level FlightAware Approximate
10:15AM 21.4185 -83.7264 300° West  Level FlightAware Approximate
10:16AM 21.4725 -83.8283 300° West  Level FlightAware Approximate
10:17AM 21.5265 -83.9303 300° West  Level FlightAware Approximate
10:18AM 21.5805 -84.0324 300° West  Level FlightAware Approximate
10:19AM 21.6343 -84.1345 300° West  Level FlightAware Approximate
10:20AM 21.6881 -84.2368 300° West  Level FlightAware Approximate
10:21AM 21.7419 -84.3391 300° West  Level FlightAware Approximate
10:22AM 21.7955 -84.4414 299° West  Level FlightAware Approximate
10:23AM 21.8492 -84.5439 299° West  Level FlightAware Approximate
10:24AM 21.9027 -84.6464 299° West  Level FlightAware Approximate
10:25AM 21.9562 -84.7490 299° West  Level FlightAware Approximate
10:26AM 22.0096 -84.8517 299° West  Level FlightAware Approximate
10:27AM 22.0630 -84.9545 299° West  Level FlightAware Approximate
10:28AM 22.1163 -85.0573 299° West  Level FlightAware Approximate
10:29AM 22.1695 -85.1602 299° West  Level FlightAware Approximate
10:30AM 22.2227 -85.2632 299° West  Level FlightAware Approximate
10:31AM 22.2758 -85.3663 299° West  Level FlightAware Approximate
10:32AM 22.3289 -85.4695 299° West  Level FlightAware Approximate
10:33AM 22.3818 -85.5727 299° West  Level FlightAware Approximate
10:34AM 22.4348 -85.6760 299° West  Level FlightAware Approximate
10:35AM 22.4876 -85.7794 299° West  Level FlightAware Approximate
10:36AM 22.5404 -85.8829 299° West  Level FlightAware Approximate
10:37AM 22.5931 -85.9864 299° West  Level FlightAware Approximate
10:38AM 22.6458 -86.0900 299° West  Level FlightAware Approximate
10:39AM 22.6985 -86.1937 299° West  Level FlightAware Approximate
10:40AM 22.7511 -86.2974 299° West  Level FlightAware Approximate
10:41AM 22.8036 -86.4012 299° West  Level FlightAware Approximate
10:42AM 22.8561 -86.5051 299° West  Level FlightAware Approximate
10:43AM 22.9084 -86.6091 299° West  Level FlightAware Approximate
10:44AM 22.9608 -86.7132 299° West  Level FlightAware Approximate
10:45AM 23.0130 -86.8173 299° West  Level FlightAware Approximate
10:46AM 23.0652 -86.9215 299° West  Level FlightAware Approximate
10:47AM 23.1173 -87.0258 299° West  Level FlightAware Approximate
10:48AM 23.1694 -87.1302 298° West  Level FlightAware Approximate
10:49AM 23.2214 -87.2347 298° West  Level FlightAware Approximate
10:50AM 23.2733 -87.3392 298° West  Level FlightAware Approximate
10:51AM 23.3251 -87.4438 298° West  Level FlightAware Approximate
10:52AM 23.3769 -87.5485 298° West  Level FlightAware Approximate
10:53AM 23.4286 -87.6533 298° West  Level FlightAware Approximate
10:54AM 23.4803 -87.7582 298° West  Level FlightAware Approximate
10:55AM 23.5319 -87.8631 298° West  Level FlightAware Approximate
10:56AM 23.5833 -87.9682 298° West  Level FlightAware Approximate
10:57AM 23.6348 -88.0733 298° West  Level FlightAware Approximate
10:58AM 23.6861 -88.1785 298° West  Level FlightAware Approximate
10:59AM 23.7374 -88.2838 298° West  Level FlightAware Approximate
11:00AM 23.7886 -88.3891 298° West  Level FlightAware Approximate
11:01AM 23.8398 -88.4946 298° West  Level FlightAware Approximate
11:02AM 23.8908 -88.6001 298° West  Level FlightAware Approximate
11:03AM 23.9418 -88.7057 298° West  Level FlightAware Approximate
11:04AM 23.9928 -88.8114 298° West  Level FlightAware Approximate
11:05AM 24.0436 -88.9172 298° West  Level FlightAware Approximate
11:06AM 24.0944 -89.0230 298° West  Level FlightAware Approximate
11:07AM 24.1456 -89.1287 298° West  Level FlightAware Approximate
11:08AM 24.1946 -89.2302 298° West  Level FlightAware Approximate
11:09AM 24.2435 -89.3319 298° West  Level FlightAware Approximate
11:10AM 24.2924 -89.4336 298° West  Level FlightAware Approximate
11:11AM 24.3411 -89.5354 298° West  Level FlightAware Approximate
11:12AM 24.3899 -89.6373 298° West  Level FlightAware Approximate
11:13AM 24.4385 -89.7392 298° West  Level FlightAware Approximate
11:14AM 24.4894 -89.8394 318° Northwest  Level FlightAware Approximate
11:15AM 24.5743 -89.9067 325° Northwest  Level FlightAware Approximate
11:16AM 24.6604 -89.9725 325° Northwest  Level FlightAware Approximate
11:17AM 24.7464 -90.0384 325° Northwest  Level FlightAware Approximate
11:18AM 24.8324 -90.1044 325° Northwest  Level FlightAware Approximate
11:19AM 24.9184 -90.1705 325° Northwest  Level FlightAware Approximate
11:20AM 25.0043 -90.2367 325° Northwest  Level FlightAware Approximate
11:21AM 25.0904 -90.3027 325° Northwest  Level FlightAware Approximate
11:22AM 25.1764 -90.3689 325° Northwest  Level FlightAware Approximate
11:23AM 25.2624 -90.4351 325° Northwest  Level FlightAware Approximate
11:24AM 25.3484 -90.5015 325° Northwest  Level FlightAware Approximate
11:25AM 25.4343 -90.5679 325° Northwest  Level FlightAware Approximate
11:26AM 25.5202 -90.6344 325° Northwest  Level FlightAware Approximate
11:27AM 25.6061 -90.7011 325° Northwest  Level FlightAware Approximate
11:28AM 25.6919 -90.7678 325° Northwest  Level FlightAware Approximate
11:29AM 25.7777 -90.8346 325° Northwest  Level FlightAware Approximate
11:30AM 25.8635 -90.9015 325° Northwest  Level FlightAware Approximate
11:31AM 25.9492 -90.9685 325° Northwest  Level FlightAware Approximate
11:32AM 26.0350 -91.0356 325° Northwest  Level FlightAware Approximate
11:33AM 26.1206 -91.1029 325° Northwest  Level FlightAware Approximate
11:34AM 26.2063 -91.1702 325° Northwest  Level FlightAware Approximate
11:35AM 26.2919 -91.2376 325° Northwest  Level FlightAware Approximate
11:36AM 26.3776 -91.3051 325° Northwest  Level FlightAware Approximate
11:37AM 26.4631 -91.3727 325° Northwest  Level FlightAware Approximate
11:38AM 26.5524 -91.4434 325° Northwest  Level FlightAware Approximate
11:38AM 26.8025 -91.6486 325° Northwest 398 458 36,000  Level Houston Center
11:39AM 26.6417 -91.5142 325° Northwest  Level FlightAware Approximate
11:39AM 26.8892 -91.7211 323° Northwest 410 472 38,000  Level Houston Center
11:40AM 26.7310 -91.5851 325° Northwest  Level FlightAware Approximate
11:40AM 26.9428 -91.8269 300° West 395 455 38,000  Level Houston Center
11:41AM 26.8202 -91.6561 325° Northwest  Level FlightAware Approximate
11:41AM 27.0006 -91.9633 295° West 401 461 38,000  Level Houston Center
11:42AM 26.9093 -91.7272 325° Northwest  Level FlightAware Approximate
11:42AM 27.0483 -92.0778 295° West 404 465 38,000  Level Houston Center
11:43AM 26.9985 -91.7985 325° Northwest  Level FlightAware Approximate
11:43AM 27.0969 -92.1900 296° West 404 465 37,900  Level Houston Center
11:44AM 27.0876 -91.8699 325° Northwest  Level FlightAware Approximate
11:44AM 27.1456 -92.3033 296° West 402 463 38,000  Level Houston Center
11:45AM 27.1922 -92.4219 294° West 405 466 38,000 -60 Level Houston Center
11:46AM 27.2408 -92.5339 296° West 405 466 37,900  Descending Houston Center
11:48AM 27.2881 -92.6400 297° West 395 455 38,000  Climbing Houston Center
11:49AM 27.3350 -92.7486 296° West 389 448 37,900 -60 Descending Houston Center
11:50AM 27.3914 -92.8811 296° West 390 449 37,900  Level Houston Center
11:51AM 27.4364 -92.9922 295° West 390 449 38,000  Climbing Houston Center
11:52AM 27.4836 -93.1014 296° West 390 449 38,000 -60 Level Houston Center
11:53AM 27.5278 -93.2106 295° West 386 444 37,900  Descending Houston Center
11:54AM 27.5756 -93.3283 295° West 377 434 38,000  Climbing Houston Center
11:55AM 27.6206 -93.4331 296° West 372 428 38,000  Level Houston Center
11:56AM 27.6647 -93.5411 295° West 377 434 38,000  Level Houston Center
11:57AM 27.7069 -93.6472 294° West 374 430 38,000  Level Houston Center
11:58AM 27.7519 -93.7525 296° West 372 428 38,000  Level Houston Center
11:59AM 27.7947 -93.8597 294° West 374 430 38,000  Level Houston Center
12:00PM 27.8383 -93.9669 295° West 377 434 38,000  Level Houston Center
12:01PM 27.8906 -94.0961 295° West 377 434 38,000  Level Houston Center
12:02PM 27.9353 -94.2011 296° West 372 428 38,000  Level Houston Center
12:03PM 27.9778 -94.3097 294° West 376 433 38,000  Level Houston Center
12:04PM 28.0200 -94.4186 294° West 378 435 38,000  Level Houston Center
12:05PM 28.0642 -94.5239 295° West 373 429 38,000  Level Houston Center
12:06PM 28.1069 -94.6300 295° West 370 426 38,000  Level Houston Center
12:07PM 28.1497 -94.7397 294° West 377 434 38,000  Level Houston Center
12:08PM 28.1939 -94.8481 295° West 378 435 38,000 -240 Level Houston Center
12:09PM 28.2456 -94.9786 294° West 379 436 37,600 -660 Descending Houston Center
12:10PM 28.2883 -95.0869 294° West 376 433 36,700 -960 Descending Houston Center
12:11PM 28.3319 -95.1964 294° West 377 434 35,700 -1,020 Descending Houston Center
12:12PM 28.3603 -95.3083 286° West 374 430 34,700 -960 Descending Houston Center
12:13PM 28.3694 -95.4261 275° West 375 432 33,800 -960 Descending Houston Center
12:14PM 28.4139 -95.5408 294° West 397 457 32,800 -960 Descending Houston Center
12:15PM 28.4672 -95.6553 298° West 407 468 31,900 -960 Descending Houston Center
12:16PM 28.5206 -95.7731 297° West 415 478 30,900 -1,860 Descending Houston Center
12:17PM 28.5850 -95.9131 298° West 415 478 28,100 -1,980 Descending Houston Center
12:18PM 28.6378 -96.0292 297° West 407 468 26,900 -1,080 Descending Houston Center
12:19PM 28.7328 -96.1056 325° Northwest 429 494 25,900 -1,020 Descending Houston Center
12:20PM 28.8408 -96.1669 334° Northwest 433 498 24,900 -1,800 Descending Houston Center
12:21PM 28.9475 -96.2297 333° Northwest 432 497 22,300 -2,640 Descending Houston Center
12:22PM 29.0739 -96.2300 360° North 459 528 19,500 -2,940 Descending Houston Center
12:23PM 29.1431 -96.2211 North 465 535 17,900 -2,460 Descending Houston Center
12:23PM 29.1953 -96.2147 North 448 516 17,000 -2,400 Descending Houston Center
12:25PM 29.3364 -96.1972 North 366 421 13,800 -2,640 Descending Houston Center
12:26PM 29.4208 -96.1850 North 365 420 11,600 -2,040 Descending Houston Center
12:27PM 29.5206 -96.1708 North 363 418 9,900 -840 Descending Houston Center
12:28PM 29.5808 -96.0942 48° Northeast 339 390 10,000  Climbing Houston Center
12:29PM 29.6303 -95.9986 59° Northeast 337 388 10,000 -720 Level Houston Center
12:30PM 29.6861 -95.9283 48° Northeast 309 356 8,600 -1,320 Descending Houston Center
12:31PM 29.7528 -95.8722 36° Northeast 297 342 7,400 -780 Descending Houston Center
12:32PM 29.8164 -95.8169 37° Northeast 288 331 7,000 -720 Descending Houston Center
12:33PM 29.8775 -95.7636 37° Northeast 279 321 6,000 -1,020 Descending Houston Center
12:34PM 29.9489 -95.7031 36° Northeast 266 306 5,000 -720 Descending Houston Center
12:35PM 29.9744 -95.6242 69° East 245 282 4,500 -480 Descending Houston Center